createdAt,value
2023-04-27T00:01:20.639Z,4.93
2023-04-27T00:06:23.413Z,4.82
2023-04-27T00:11:26.409Z,4.70
2023-04-27T00:16:30.801Z,4.65
2023-04-27T00:21:33.574Z,4.50
2023-04-27T00:26:36.314Z,4.49
2023-04-27T00:31:40.523Z,4.40
2023-04-27T00:36:43.409Z,4.37
2023-04-27T00:41:46.158Z,4.27
2023-04-27T00:46:50.471Z,4.19
2023-04-27T00:51:53.255Z,4.12
2023-04-27T00:56:59.477Z,4.20
2023-04-27T01:02:03.864Z,4.23
2023-04-27T01:07:06.752Z,4.22
2023-04-27T01:12:09.520Z,4.21
2023-04-27T01:17:14.112Z,4.22
2023-04-27T01:22:16.878Z,4.24
2023-04-27T01:27:21.011Z,4.17
2023-04-27T01:32:23.889Z,4.22
2023-04-27T01:37:28.244Z,4.22
2023-04-27T01:42:32.369Z,4.24
2023-04-27T01:47:36.269Z,4.19
2023-04-27T01:52:39.099Z,4.11
2023-04-27T01:57:43.263Z,4.13
2023-04-27T02:02:46.493Z,4.15
2023-04-27T02:07:49.950Z,4.19
2023-04-27T02:12:54.127Z,4.22
2023-04-27T02:17:57.372Z,4.22
2023-04-27T02:23:01.026Z,4.20
2023-04-27T02:28:05.628Z,4.21
2023-04-27T02:33:09.183Z,4.18
2023-04-27T02:38:13.543Z,4.15
2023-04-27T02:43:17.648Z,4.13
2023-04-27T02:48:20.460Z,3.96
2023-04-27T02:53:23.288Z,3.92
2023-04-27T02:58:27.484Z,3.81
2023-04-27T03:03:30.212Z,3.81
2023-04-27T03:08:33.170Z,3.65
2023-04-27T03:13:41.960Z,3.65
2023-04-27T03:18:44.795Z,3.57
2023-04-27T03:23:47.556Z,3.54
2023-04-27T03:28:51.700Z,3.43
2023-04-27T03:33:54.632Z,3.39
2023-04-27T03:38:58.432Z,3.36
2023-04-27T03:44:03.182Z,3.28
2023-04-27T03:49:06.336Z,3.21
2023-04-27T03:54:10.061Z,3.13
2023-04-27T03:59:14.672Z,3.10
2023-04-27T04:04:24.930Z,3.11
2023-04-27T04:09:27.908Z,3.02
2023-04-27T04:14:32.504Z,3.04
2023-04-27T04:19:35.823Z,3.08
2023-04-27T04:24:40.100Z,3.13
2023-04-27T04:29:44.271Z,3.21
2023-04-27T04:34:51.360Z,3.30
2023-04-27T04:39:56.271Z,3.39
2023-04-27T04:45:02.343Z,3.49
2023-04-27T04:50:07.147Z,3.57
2023-04-27T04:55:11.598Z,3.69
2023-04-27T05:00:16.780Z,3.81
2023-04-27T05:05:21.493Z,3.95
2023-04-27T05:10:24.485Z,4.06
2023-04-27T05:15:29.291Z,4.24
2023-04-27T05:20:32.532Z,4.36
2023-04-27T05:25:41.327Z,4.48
2023-04-27T05:30:46.289Z,4.64
2023-04-27T05:35:49.902Z,4.80
2023-04-27T05:40:56.315Z,5.07
2023-04-27T05:46:00.369Z,5.38
2023-04-27T05:51:04.390Z,5.71
2023-04-27T05:56:10.434Z,6.05
2023-04-27T06:01:16.417Z,6.61
2023-04-27T06:06:20.389Z,6.88
2023-04-27T06:11:24.224Z,7.37
2023-04-27T06:16:29.406Z,7.65
2023-04-27T06:21:34.101Z,8.01
2023-04-27T06:26:37.010Z,7.84
2023-04-27T06:31:42.928Z,8.06
2023-04-27T06:36:45.782Z,8.27
2023-04-27T06:41:50.399Z,8.41
2023-04-27T06:46:56.291Z,8.77
2023-04-27T06:51:59.071Z,9.18
2023-04-27T06:57:03.278Z,9.23
2023-04-27T07:02:09.363Z,9.51
2023-04-27T07:07:12.374Z,9.57
2023-04-27T07:12:15.148Z,9.89
2023-04-27T07:17:19.484Z,9.64
2023-04-27T07:22:24.575Z,9.85
2023-04-27T07:27:30.155Z,10.13
2023-04-27T07:32:34.432Z,10.24
2023-04-27T07:37:38.429Z,10.34
2023-04-27T07:42:41.357Z,10.45
2023-04-27T07:47:46.469Z,10.53
2023-04-27T07:52:49.262Z,10.72
2023-04-27T07:57:54.986Z,10.79
2023-04-27T08:02:59.712Z,11.08
2023-04-27T08:08:02.972Z,10.91
2023-04-27T08:13:09.715Z,11.00
2023-04-27T08:18:16.511Z,11.02
2023-04-27T08:23:20.486Z,10.98
2023-04-27T08:28:24.509Z,11.51
2023-04-27T08:33:32.410Z,11.93
2023-04-27T08:38:36.497Z,12.35
2023-04-27T08:43:39.176Z,12.23
2023-04-27T08:48:43.230Z,12.44
2023-04-27T08:53:51.554Z,12.59
2023-04-27T08:58:57.367Z,12.68
2023-04-27T09:04:03.114Z,12.95
2023-04-27T09:09:07.206Z,13.32
2023-04-27T09:14:18.428Z,13.70
2023-04-27T09:19:27.386Z,13.49
2023-04-27T09:24:31.367Z,13.69
2023-04-27T09:29:36.183Z,13.46
2023-04-27T09:34:41.904Z,14.06
2023-04-27T09:39:47.382Z,13.96
2023-04-27T09:44:54.323Z,14.11
2023-04-27T09:50:01.566Z,14.38
2023-04-27T09:55:06.968Z,14.52
2023-04-27T10:00:41.036Z,14.00
2023-04-27T10:06:13.576Z,14.61
2023-04-27T10:11:19.151Z,14.85
2023-04-27T10:16:24.511Z,15.21
2023-04-27T10:21:28.594Z,15.18
2023-04-27T10:26:33.484Z,15.58
2023-04-27T10:31:37.598Z,15.54
2023-04-27T10:36:42.212Z,15.44
2023-04-27T10:41:53.977Z,15.75
2023-04-27T10:47:00.667Z,16.21
2023-04-27T10:52:07.337Z,16.68
2023-04-27T10:57:13.567Z,16.83
2023-04-27T11:02:17.768Z,16.51
2023-04-27T11:07:26.709Z,16.91
2023-04-27T11:12:33.466Z,17.65
2023-04-27T11:17:38.361Z,17.06
2023-04-27T11:22:46.093Z,16.39
2023-04-27T11:27:50.511Z,17.23
2023-04-27T11:32:54.816Z,17.63
2023-04-27T11:37:59.479Z,17.91
2023-04-27T11:43:04.414Z,18.13
2023-04-27T11:48:07.734Z,18.38
2023-04-27T11:53:11.932Z,18.61
2023-04-27T11:58:18.801Z,18.43
2023-04-27T12:03:23.017Z,18.59
2023-04-27T12:08:26.332Z,19.18
2023-04-27T12:13:30.421Z,19.32
2023-04-27T12:18:33.487Z,20.29
2023-04-27T12:23:38.311Z,19.89
2023-04-27T12:28:42.507Z,21.15
2023-04-27T12:33:45.551Z,21.49
2023-04-27T12:38:49.717Z,22.43
2023-04-27T12:43:53.771Z,23.03
2023-04-27T12:48:57.322Z,23.14
2023-04-27T12:54:01.057Z,22.27
2023-04-27T12:59:06.684Z,21.05
2023-04-27T13:04:11.350Z,21.03
2023-04-27T13:09:14.337Z,22.82
2023-04-27T13:14:18.424Z,23.78
2023-04-27T13:19:21.560Z,23.93
2023-04-27T13:24:24.840Z,23.73
2023-04-27T13:29:31.103Z,25.03
2023-04-27T13:34:34.833Z,23.54
2023-04-27T13:39:38.298Z,22.81
2023-04-27T13:44:43.086Z,22.01
2023-04-27T13:49:46.739Z,25.54
2023-04-27T13:54:51.467Z,25.56
2023-04-27T13:59:56.649Z,27.23
2023-04-27T14:04:59.449Z,25.84
2023-04-27T14:10:02.831Z,23.73
2023-04-27T14:15:07.794Z,22.09
2023-04-27T14:20:12.359Z,21.23
2023-04-27T14:25:15.824Z,20.62
2023-04-27T14:30:22.930Z,19.98
2023-04-27T14:35:27.439Z,19.34
2023-04-27T14:40:30.397Z,20.69
2023-04-27T14:45:47.850Z,20.26
2023-04-27T14:50:53.857Z,20.08
2023-04-27T14:55:56.653Z,19.96
2023-04-27T15:01:02.775Z,20.71
2023-04-27T15:06:06.879Z,19.92
2023-04-27T15:11:09.943Z,20.43
2023-04-27T15:16:14.021Z,20.37
2023-04-27T15:21:16.784Z,24.81
2023-04-27T15:26:19.598Z,26.18
2023-04-27T15:31:26.130Z,27.39
2023-04-27T15:36:31.714Z,27.66
2023-04-27T15:41:35.705Z,25.62
2023-04-27T15:46:39.938Z,27.47
2023-04-27T15:51:42.752Z,28.85
2023-04-27T15:56:45.912Z,33.76
2023-04-27T16:01:50.879Z,30.95
2023-04-27T16:06:54.450Z,33.20
2023-04-27T16:11:59.077Z,35.55
2023-04-27T16:17:03.184Z,33.54
2023-04-27T16:22:06.958Z,27.87
2023-04-27T16:27:11.554Z,30.23
2023-04-27T16:32:17.936Z,32.03
2023-04-27T16:37:20.840Z,32.43
2023-04-27T16:42:23.539Z,24.59
2023-04-27T16:47:27.950Z,21.98
2023-04-27T16:52:30.975Z,21.74
2023-04-27T16:57:33.769Z,20.67
2023-04-27T17:02:41.246Z,19.89
2023-04-27T17:07:45.999Z,19.06
2023-04-27T17:12:49.899Z,18.34
2023-04-27T17:17:54.698Z,17.70
2023-04-27T17:22:59.026Z,17.26
2023-04-27T17:28:03.781Z,16.76
2023-04-27T17:33:07.933Z,16.50
2023-04-27T17:38:12.161Z,16.09
2023-04-27T17:43:16.228Z,15.93
2023-04-27T17:48:21.056Z,15.65
2023-04-27T17:53:23.875Z,15.51
2023-04-27T17:58:28.090Z,15.26
2023-04-27T18:03:32.402Z,15.27
2023-04-27T18:08:38.094Z,15.06
2023-04-27T18:13:40.997Z,14.90
2023-04-27T18:18:47.208Z,14.67
2023-04-27T18:23:51.068Z,14.58
2023-04-27T18:28:54.646Z,14.41
2023-04-27T18:34:00.002Z,14.42
2023-04-27T18:39:03.186Z,14.28
2023-04-27T18:44:06.463Z,14.16
2023-04-27T18:49:11.042Z,14.06
2023-04-27T18:54:13.792Z,13.90
2023-04-27T18:59:16.548Z,13.78
2023-04-27T19:04:20.938Z,13.70
2023-04-27T19:09:24.112Z,13.58
2023-04-27T19:14:26.856Z,13.50
2023-04-27T19:19:33.323Z,13.40
2023-04-27T19:24:37.846Z,13.26
2023-04-27T19:29:52.117Z,13.15
2023-04-27T19:34:58.078Z,13.06
2023-04-27T19:40:00.935Z,13.01
2023-04-27T19:45:04.821Z,12.94
2023-04-27T19:50:09.551Z,12.88
2023-04-27T19:55:12.590Z,12.70
2023-04-27T20:00:16.097Z,12.65
2023-04-27T20:05:20.403Z,12.59
2023-04-27T20:10:23.820Z,12.49
2023-04-27T20:15:26.813Z,12.45
2023-04-27T20:20:31.128Z,12.43
2023-04-27T20:25:33.992Z,12.43
2023-04-27T20:30:36.874Z,12.39
2023-04-27T20:35:42.184Z,12.37
2023-04-27T20:40:45.926Z,12.30
2023-04-27T20:45:48.714Z,12.24
2023-04-27T20:50:52.994Z,12.22
2023-04-27T20:55:55.977Z,12.18
2023-04-27T21:00:59.165Z,12.13
2023-04-27T21:06:04.245Z,12.10
2023-04-27T21:11:07.928Z,12.05
2023-04-27T21:16:11.427Z,12.02
2023-04-27T21:21:15.637Z,11.99
2023-04-27T21:26:19.810Z,11.97
2023-04-27T21:31:22.823Z,11.96
2023-04-27T21:36:27.064Z,11.98
2023-04-27T21:41:29.838Z,11.97
2023-04-27T21:46:32.689Z,11.98
2023-04-27T21:51:36.909Z,11.92
2023-04-27T21:56:39.676Z,11.87
2023-04-27T22:01:42.892Z,11.81
2023-04-27T22:06:47.375Z,11.80
2023-04-27T22:11:50.135Z,11.81
2023-04-27T22:16:53.087Z,11.80
2023-04-27T22:21:58.297Z,11.78
2023-04-27T22:27:01.995Z,11.74
2023-04-27T22:32:05.076Z,11.75
2023-04-27T22:37:09.549Z,11.73
2023-04-27T22:42:12.348Z,11.71
2023-04-27T22:47:15.177Z,11.67
2023-04-27T22:52:20.069Z,11.66
2023-04-27T22:57:22.768Z,11.64
2023-04-27T23:02:25.598Z,11.61
2023-04-27T23:07:29.994Z,11.57
2023-04-27T23:12:33.132Z,11.50
2023-04-27T23:17:36.025Z,11.52
2023-04-27T23:22:43.623Z,11.48
2023-04-27T23:27:46.394Z,11.48
2023-04-27T23:32:49.281Z,11.48
2023-04-27T23:37:53.438Z,11.47
2023-04-27T23:42:56.224Z,11.40
2023-04-27T23:48:00.171Z,11.39
2023-04-27T23:53:04.601Z,11.39
2023-04-27T23:58:07.288Z,11.30
